createdAt,value
2022-12-20T00:00:58.459Z,1659.00
2022-12-20T00:04:59.642Z,1657.00
2022-12-20T00:05:59.663Z,1660.00
2022-12-20T00:06:58.703Z,1676.00
2022-12-20T00:07:57.914Z,1666.00
2022-12-20T00:08:57.814Z,1668.00
2022-12-20T00:09:57.704Z,1671.00
2022-12-20T00:10:57.624Z,1668.00
2022-12-20T00:12:57.653Z,1673.00
2022-12-20T00:13:57.661Z,1676.00
2022-12-20T00:14:57.218Z,1674.00
2022-12-20T00:15:57.329Z,1676.00
2022-12-20T00:25:56.572Z,1694.00
2022-12-20T00:26:56.489Z,1690.00
2022-12-20T00:27:56.380Z,1693.00
2022-12-20T00:28:56.296Z,1691.00
2022-12-20T00:30:57.645Z,1693.00
2022-12-20T00:31:56.169Z,1693.00
2022-12-20T00:32:56.029Z,1693.00
2022-12-20T00:33:55.939Z,1694.00
2022-12-20T00:34:55.822Z,1695.00
2022-12-20T00:35:56.261Z,1701.00
2022-12-20T00:36:55.734Z,1703.00
2022-12-20T00:37:55.736Z,1705.00
2022-12-20T00:38:55.559Z,1708.00
2022-12-20T00:39:55.475Z,1709.00
2022-12-20T00:40:55.349Z,1709.00
2022-12-20T00:41:55.262Z,1706.00
2022-12-20T00:42:55.255Z,1700.00
2022-12-20T00:43:55.291Z,1698.00
2022-12-20T00:44:55.096Z,1708.00
2022-12-20T00:45:54.972Z,1707.00
2022-12-20T00:46:54.933Z,1708.00
2022-12-20T00:48:54.697Z,1720.00
2022-12-20T00:52:54.304Z,1728.00
2022-12-20T01:04:53.369Z,1736.00
2022-12-20T01:05:53.791Z,1734.00
2022-12-20T01:06:53.285Z,1734.00
2022-12-20T01:07:53.280Z,1739.00
2022-12-20T01:08:53.080Z,1743.00
2022-12-20T01:09:53.021Z,1744.00
2022-12-20T01:10:52.907Z,1745.00
2022-12-20T01:11:52.791Z,1748.00
2022-12-20T01:12:52.815Z,1746.00
2022-12-20T01:15:53.225Z,1753.00
2022-12-20T01:16:52.377Z,1756.00
2022-12-20T01:19:52.053Z,1760.00
2022-12-20T01:20:52.052Z,1756.00
2022-12-20T01:22:52.242Z,1756.00
2022-12-20T01:24:51.657Z,1763.00
2022-12-20T01:25:51.660Z,1761.00
2022-12-20T01:26:51.447Z,1760.00
2022-12-20T01:27:51.455Z,1772.00
2022-12-20T01:29:51.288Z,1770.00
2022-12-20T01:30:51.182Z,1768.00
2022-12-20T01:31:51.211Z,1770.00
2022-12-20T01:33:51.336Z,1788.00
2022-12-20T01:34:50.902Z,1786.00
2022-12-20T01:35:50.797Z,1785.00
2022-12-20T01:36:50.600Z,1786.00
2022-12-20T01:37:50.520Z,1789.00
2022-12-20T01:41:50.733Z,1786.00
2022-12-20T01:43:50.265Z,1793.00
2022-12-20T01:44:50.264Z,1786.00
2022-12-20T01:45:50.021Z,1788.00
2022-12-20T01:46:49.873Z,1785.00
2022-12-20T01:47:49.751Z,1791.00
2022-12-20T01:49:49.572Z,1794.00
2022-12-20T01:50:49.487Z,1797.00
2022-12-20T01:52:49.780Z,1799.00
2022-12-20T01:53:49.301Z,1803.00
2022-12-20T01:54:49.306Z,1806.00
2022-12-20T01:55:49.313Z,1806.00
2022-12-20T01:58:48.814Z,1810.00
2022-12-20T01:59:48.725Z,1807.00
2022-12-20T02:00:48.626Z,1811.00
2022-12-20T02:03:49.255Z,1814.00
2022-12-20T02:04:49.253Z,1817.00
2022-12-20T02:05:48.779Z,1821.00
2022-12-20T02:06:48.254Z,1816.00
2022-12-20T02:07:48.057Z,1818.00
2022-12-20T02:08:47.974Z,1823.00
2022-12-20T02:09:47.850Z,1827.00
2022-12-20T02:10:47.776Z,1834.00
2022-12-20T02:11:47.656Z,1826.00
2022-12-20T02:12:47.789Z,1829.00
2022-12-20T02:13:47.788Z,1835.00
2022-12-20T02:14:47.799Z,1830.00
2022-12-20T02:15:47.816Z,1825.00
2022-12-20T02:16:47.318Z,1830.00
2022-12-20T02:17:47.324Z,1836.00
2022-12-20T02:18:47.312Z,1835.00
2022-12-20T02:25:48.282Z,1853.00
2022-12-20T02:26:47.243Z,1847.00
2022-12-20T02:27:47.250Z,1851.00
2022-12-20T03:46:40.945Z,1993.00
2022-12-20T03:47:40.528Z,1994.00
2022-12-20T03:48:40.848Z,1996.00
2022-12-20T03:49:40.347Z,1995.00
2022-12-20T03:50:40.223Z,1993.00
2022-12-20T03:52:40.390Z,1998.00
2022-12-20T03:55:40.814Z,2018.00
2022-12-20T03:56:41.330Z,2023.00
2022-12-20T03:57:39.683Z,2023.00
2022-12-20T03:58:40.317Z,2018.00
2022-12-20T03:59:39.482Z,2018.00
2022-12-20T04:00:39.788Z,2019.00
2022-12-20T04:01:39.440Z,2023.00
2022-12-20T04:02:39.400Z,2023.00
2022-12-20T04:03:39.175Z,2026.00
2022-12-20T04:04:39.011Z,2024.00
2022-12-20T04:05:38.923Z,2031.00
2022-12-20T04:06:38.818Z,2032.00
2022-12-20T04:07:38.729Z,2037.00
2022-12-20T04:08:38.619Z,2036.00
2022-12-20T04:09:38.521Z,2038.00
2022-12-20T04:10:38.832Z,2041.00
2022-12-20T04:11:38.836Z,2047.00
2022-12-20T04:12:38.357Z,2049.00
2022-12-20T04:13:38.365Z,2052.00
2022-12-20T04:14:38.376Z,2054.00
2022-12-20T04:15:38.390Z,2057.00
2022-12-20T04:16:38.458Z,2062.00
2022-12-20T04:17:37.870Z,2068.00
2022-12-20T04:18:37.774Z,2074.00
2022-12-20T14:05:54.831Z,759.00
2022-12-20T14:06:54.745Z,727.00
2022-12-20T14:07:54.681Z,761.00
